Aviation Digital Data Service (ADDS)

Output produced by METARs form (0031 UTC 23 March 2019)
found at http://www.aviationweather.gov/metar/data/
 
METAR text: RJTE 221301Z 06015G25KT 7000 FEW015 BKN025 12/08 Q1008 RMK 1CU015 7SC025 A2977
Conditions at: RJTE (TATEYAMA (JMSDF), JP) observed 1301 UTC 22 March 2019
Temperature: 12.0°C (54°F)
Dewpoint: 8.0°C (46°F) [RH = 76%]
Pressure (altimeter): 29.76 inches Hg (1008.0 mb)
Winds: from the ENE (60 degrees) at 17 MPH (15 knots; 7.7 m/s)
gusting to 29 MPH (25 knots; 12.9 m/s)
Visibility: 4 miles ( 7 km)
Ceiling: 2500 feet AGL
Clouds: few clouds at 1500 feet AGL
broken clouds at 2500 feet AGL
Weather: no significant weather observed at this time

METAR text: RJTE 220349Z 11010KT 080V140 9999 FEW015 SCT030 BKN230 20/13 Q1000 RMK 1CU015 4CU030 A2954
Conditions at: RJTE (TATEYAMA (JMSDF), JP) observed 0349 UTC 22 March 2019
Temperature: 20.0°C (68°F)
Dewpoint: 13.0°C (55°F) [RH = 64%]
Pressure (altimeter): 29.53 inches Hg (1000.0 mb)
Winds: from the ESE (110 degrees) at 12 MPH (10 knots; 5.1 m/s)
Visibility: 6 or more miles (10+ km)
Ceiling: 23000 feet AGL
Clouds: few clouds at 1500 feet AGL
scattered clouds at 3000 feet AGL
broken clouds at 23000 feet AGL
Weather: no significant weather observed at this time

METAR text: RJTE 212331Z 33010KT 290V010 9999 FEW015 BKN230 18/15 Q1000 RMK 1CU015 A2954
Conditions at: RJTE (TATEYAMA (JMSDF), JP) observed 2331 UTC 21 March 2019
Temperature: 18.0°C (64°F)
Dewpoint: 15.0°C (59°F) [RH = 83%]
Pressure (altimeter): 29.53 inches Hg (1000.0 mb)
Winds: from the NNW (330 degrees) at 12 MPH (10 knots; 5.1 m/s)
Visibility: 6 or more miles (10+ km)
Ceiling: 23000 feet AGL
Clouds: few clouds at 1500 feet AGL
broken clouds at 23000 feet AGL
Weather: no significant weather observed at this time

METAR text: RJTE 212003Z 20005KT 100V260 8000 FEW008 SCT012 BKN120 19/17 Q0999 RMK 1ST008 4CU012 7AC120 A2952
Conditions at: RJTE (TATEYAMA (JMSDF), JP) observed 2003 UTC 21 March 2019
Temperature: 19.0°C (66°F)
Dewpoint: 17.0°C (63°F) [RH = 88%]
Pressure (altimeter): 29.50 inches Hg (999.0 mb)
Winds: from the SSW (200 degrees) at 6 MPH (5 knots; 2.6 m/s)
Visibility: 5 miles ( 8 km)
Ceiling: 12000 feet AGL
Clouds: few clouds at 800 feet AGL
scattered clouds at 1200 feet AGL
broken clouds at 12000 feet AGL
Weather: no significant weather observed at this time

METAR text: RJTE 211930Z 17004KT 090V260 8000 FEW008 BKN014 BKN080 19/17 Q1000 RMK 2ST008 5CU014 7AC080 A2953
Conditions at: RJTE (TATEYAMA (JMSDF), JP) observed 1930 UTC 21 March 2019
Temperature: 19.0°C (66°F)
Dewpoint: 17.0°C (63°F) [RH = 88%]
Pressure (altimeter): 29.53 inches Hg (1000.0 mb)
Winds: from the S (170 degrees) at 5 MPH (4 knots; 2.1 m/s)
Visibility: 5 miles ( 8 km)
Ceiling: 1400 feet AGL
Clouds: few clouds at 800 feet AGL
broken clouds at 1400 feet AGL
broken clouds at 8000 feet AGL
Weather: no significant weather observed at this time